Terminal Aerodrome Forecast
Issued by NWS

Home | Current Version | Previous Version | Text Only | Print | Product List | Glossary On
Versions: 1 2 3 4 5 6 7 8 9 10 11 12 13 14 15 16
000
FTUS43 KBIS 041135
TAFJMS
TAF
KJMS 041135Z 0412/0512 33006KT P6SM BKN180
     FM041500 12006KT P6SM SCT080 BKN180
     FM041900 14006KT P6SM SCT180
     FM050100 12006KT P6SM SKC=

USA.gov is the U.S. government's official web portal to all federal, state and local government web resources and services.